Nikolaevsk-Na-Amure, Russia
Current Conditions -  °F | °C
As of 1:30 AM on Sunday 26 Oct 2014 (Local Time) from UHHH Reporting Station
Broken Clouds Broken Clouds  
Wind Chill: 26°   Ceiling: 10000
Heat Index: 32°   Visibility: 6mi
Dew Point: 32°   Wind: 7mph
Humidity: 100%   Direction: 30°NNE
Pressure: 29.91"   Gusts: NA
Location:  53.15°N, 140.7°E
Report Text: UHHH 251530Z 03003MPS 9999 SCT026CB BKN100 00/M00 Q1013 NOSIGRMK QFE753/1005 55090060
Loading
Personal Weather Stations






























Interactive Weather Map
Tropical Storm Tracking
New forecast layout! Learn more

10-Day Weather Forecast

Advertisements
Track Severe Weather on mobile